Sochi International Airport
URSS : now visible

Airfield :











YOU CAN JOIN US ON...

 
LOGIN :

Register | Disclaimer

   EN    FR    IT 

 









Legend :    VFR   Marginal VFR   IFR   Intensive IFR   Very Intensive IFR
Visi :
Ceiling :
>= 8 km
>= 3000ft
5 to 8 km
1000 to 3000 ft
1500m to 5 km
500 to 1000 ft
800 to 1500m
200 to 500 ft
< 800m
< 200 ft
Symbols :   Thunderstorms  Fog  Heavy snow  Heavy precipitations  Wind > 20 kt







- Airport Elevation : 89 ft
- IATA code : AER


URSS - Sochi International

CURRENT METAR :
  • 180530Z 07002MPS 9999 BKN015 OVC027CB 06/05 Q1020 R02/290255 R06/290255 NOSIG RMK R06/07003MPS MT OBSC QFE764

EXPIRED METARs :
  • 180500Z 05002MPS 9999 -SHRA BKN013 OVC026CB 06/05 Q1020 R02/290255 R06/290255 NOSIG RMK R06/07003MPS MT OBSC QFE764
  • 180430Z 06001MPS 6000 -SHRA BKN011 OVC026CB 06/04 Q1020 R02/290255 R06/290255 NOSIG RMK R06/09002MPS MT OBSC QFE763
  • 180400Z 03002MPS 9000 -SHRA BKN014 OVC025CB 06/05 Q1020 R02/290255 R06/290255 NOSIG RMK R06/07002MPS MT OBSC QFE763
  • 180330Z 31001MPS 9000 -SHRA BKN014 OVC025CB 06/05 Q1020 R02/290255 R06/290255 NOSIG RMK R06/11001MPS MT OBSC QFE764

TAF TAF URSS
Valid from the 18 at 06:00 until the 19 at 06:00 UTC


180455Z 1806/1906 05004MPS 5000 -SHRA BKN011 BKN030CB OVC100
BECMG 1807/1808 13006MPS BKN015 BKN020CB OVC100
TEMPO 1808/1817 08004MPS
FM181700 05004MPS 9999 SCT020 SCT100
TEMPO 1817/1906 VRB01MPS
URRV FIR / Europe



MET'MAP, your aeronautical weather chart ! - Copyright ORBIFLY December 2007 - Disclaimer

ORBIFLY MET'MAP TEAM :

Programming & Development : Alexandra Zaïnal
Concept & Development : Baudouin d'Aumeries
Co-Development & Prog : Marc-Olivier Méhu
Technical & hardware support : Manuel Goepfert

Contact : metmap@orbifly.com




SOURCES & CREDITS :

   NOAA       Earth
Advisory